createdAt,value
2018-05-15T00:01:40.986Z,12.32
2018-05-15T00:04:11.894Z,12.41
2018-05-15T00:06:44.745Z,12.51
2018-05-15T00:09:14.269Z,12.70
2018-05-15T00:11:42.518Z,12.61
2018-05-15T00:14:14.000Z,12.55
2018-05-15T00:16:43.069Z,12.49
2018-05-15T00:19:13.233Z,12.59
2018-05-15T00:21:44.216Z,12.43
2018-05-15T00:24:17.765Z,12.52
2018-05-15T00:26:50.640Z,12.33
2018-05-15T00:29:20.165Z,12.43
2018-05-15T00:32:02.772Z,12.32
2018-05-15T00:34:34.655Z,12.39
2018-05-15T00:37:07.878Z,12.48
2018-05-15T00:39:49.007Z,12.43
2018-05-15T00:42:30.815Z,12.28
2018-05-15T00:45:02.244Z,12.25
2018-05-15T00:47:31.921Z,12.54
2018-05-15T00:50:06.181Z,12.33
2018-05-15T00:52:44.956Z,12.24
2018-05-15T00:55:32.420Z,12.32
2018-05-15T00:58:05.208Z,12.31
2018-05-15T01:00:39.174Z,12.22
2018-05-15T01:03:13.985Z,12.23
2018-05-15T01:05:43.554Z,12.21
2018-05-15T01:08:22.409Z,12.23
2018-05-15T01:10:50.731Z,12.22
2018-05-15T01:13:21.333Z,12.27
2018-05-15T01:15:52.449Z,12.36
2018-05-15T01:18:20.951Z,12.48
2018-05-15T01:20:49.222Z,12.49
2018-05-15T01:23:17.527Z,12.43
2018-05-15T01:25:46.805Z,12.38
2018-05-15T01:28:19.641Z,12.39
2018-05-15T01:31:06.991Z,12.43
2018-05-15T01:33:38.503Z,12.36
2018-05-15T01:36:10.149Z,12.53
2018-05-15T01:38:51.257Z,12.46
2018-05-15T01:41:23.460Z,12.42
2018-05-15T01:43:51.779Z,12.36
2018-05-15T01:46:20.047Z,12.34
2018-05-15T01:48:48.298Z,12.41
2018-05-15T01:51:19.971Z,12.36
2018-05-15T01:53:49.284Z,12.35
2018-05-15T01:56:21.520Z,12.42
2018-05-15T01:58:55.253Z,12.42
2018-05-15T02:01:26.059Z,12.33
2018-05-15T02:03:58.559Z,12.34
2018-05-15T02:06:26.836Z,12.35
2018-05-15T02:08:59.928Z,12.31
2018-05-15T02:11:30.283Z,12.34
2018-05-15T02:14:01.296Z,12.34
2018-05-15T02:16:33.282Z,12.28
2018-05-15T02:19:04.349Z,12.46
2018-05-15T02:21:33.565Z,12.37
2018-05-15T02:24:03.819Z,12.38
2018-05-15T02:26:35.501Z,12.55
2018-05-15T02:29:06.518Z,12.45
2018-05-15T02:31:41.523Z,12.40
2018-05-15T02:34:09.803Z,12.47
2018-05-15T02:36:44.054Z,12.48
2018-05-15T02:39:16.746Z,12.41
2018-05-15T02:41:46.741Z,12.44
2018-05-15T02:44:14.991Z,12.45
2018-05-15T02:46:47.683Z,12.43
2018-05-15T02:49:15.980Z,12.55
2018-05-15T02:51:44.220Z,12.59
2018-05-15T02:54:18.841Z,12.50
2018-05-15T02:56:48.854Z,12.51
2018-05-15T02:59:24.368Z,12.47
2018-05-15T03:01:55.343Z,12.54
2018-05-15T03:04:33.667Z,12.49
2018-05-15T03:07:08.659Z,12.56
2018-05-15T03:09:39.670Z,12.54
2018-05-15T03:12:07.931Z,12.55
2018-05-15T03:14:46.733Z,12.47
2018-05-15T03:17:15.012Z,12.39
2018-05-15T03:19:43.401Z,12.44
2018-05-15T03:22:13.649Z,12.43
2018-05-15T03:24:45.042Z,12.38
2018-05-15T03:27:32.039Z,12.54
2018-05-15T03:30:26.141Z,12.44
2018-05-15T03:33:06.620Z,12.34
2018-05-15T03:35:36.854Z,12.31
2018-05-15T03:38:06.155Z,12.46
2018-05-15T03:40:52.183Z,12.49
2018-05-15T03:43:29.196Z,12.54
2018-05-15T03:46:09.119Z,12.43
2018-05-15T03:48:44.682Z,12.39
2018-05-15T03:51:21.538Z,12.41
2018-05-15T03:53:58.035Z,12.50
2018-05-15T03:56:31.075Z,12.63
2018-05-15T03:59:00.963Z,12.51
2018-05-15T04:01:50.510Z,12.51
2018-05-15T04:04:38.607Z,12.61
2018-05-15T04:07:27.855Z,12.76
2018-05-15T04:09:58.079Z,12.69
2018-05-15T04:12:28.328Z,12.57
2018-05-15T04:14:56.606Z,12.65
2018-05-15T04:17:24.865Z,12.58
2018-05-15T04:19:54.878Z,12.56
2018-05-15T04:22:23.728Z,12.51
2018-05-15T04:24:54.801Z,12.47
2018-05-15T04:27:23.106Z,12.52
2018-05-15T04:29:53.097Z,12.62
2018-05-15T04:32:27.628Z,12.52
2018-05-15T04:35:09.170Z,12.55
2018-05-15T04:37:49.399Z,12.60
2018-05-15T04:40:28.254Z,12.53
2018-05-15T04:43:03.222Z,12.63
2018-05-15T04:45:31.481Z,12.69
2018-05-15T04:48:23.231Z,12.72
2018-05-15T04:51:06.163Z,12.64
2018-05-15T04:53:48.814Z,12.72
2018-05-15T04:56:32.468Z,12.70
2018-05-15T04:59:06.524Z,12.71
2018-05-15T05:01:45.802Z,12.66
2018-05-15T05:04:14.227Z,12.62
2018-05-15T05:06:43.556Z,12.66
2018-05-15T05:09:26.615Z,12.74
2018-05-15T05:12:05.553Z,12.74
2018-05-15T05:14:51.840Z,12.89
2018-05-15T05:17:21.079Z,12.93
2018-05-15T05:19:55.486Z,12.83
2018-05-15T05:22:24.807Z,12.95
2018-05-15T05:24:53.079Z,12.86
2018-05-15T05:27:22.408Z,12.92
2018-05-15T05:29:56.464Z,12.88
2018-05-15T05:32:25.901Z,13.22
2018-05-15T05:34:57.847Z,13.25
2018-05-15T05:37:26.126Z,13.21
2018-05-15T05:39:54.540Z,13.28
2018-05-15T05:42:23.594Z,13.26
2018-05-15T05:44:51.876Z,13.05
2018-05-15T05:47:27.126Z,13.07
2018-05-15T05:49:57.513Z,13.08
2018-05-15T05:52:38.506Z,12.93
2018-05-15T05:55:17.727Z,13.09
2018-05-15T05:57:52.687Z,13.07
2018-05-15T06:00:22.033Z,13.07
2018-05-15T06:03:07.836Z,13.13
2018-05-15T06:05:41.834Z,13.26
2018-05-15T06:08:13.763Z,13.39
2018-05-15T06:10:42.010Z,13.25
2018-05-15T06:13:11.309Z,13.33
2018-05-15T06:15:51.875Z,13.29
2018-05-15T06:18:37.262Z,13.47
2018-05-15T06:21:09.848Z,13.64
2018-05-15T06:23:39.138Z,13.43
2018-05-15T06:26:14.162Z,13.39
2018-05-15T06:28:43.459Z,13.31
2018-05-15T06:31:14.917Z,13.30
2018-05-15T06:33:46.806Z,13.43
2018-05-15T06:36:16.091Z,13.22
2018-05-15T06:38:47.853Z,13.34
2018-05-15T06:41:22.208Z,13.24
2018-05-15T06:43:50.474Z,13.47
2018-05-15T06:46:23.943Z,13.63
2018-05-15T06:48:52.226Z,13.72
2018-05-15T06:51:24.354Z,13.85
2018-05-15T06:54:00.832Z,13.93
2018-05-15T06:56:29.153Z,13.94
2018-05-15T06:59:02.022Z,13.96
2018-05-15T07:01:36.317Z,14.19
2018-05-15T07:04:14.853Z,14.31
2018-05-15T07:06:46.994Z,14.14
2018-05-15T07:09:18.928Z,13.99
2018-05-15T07:11:47.165Z,13.91
2018-05-15T07:14:18.191Z,13.83
2018-05-15T07:16:46.479Z,13.85
2018-05-15T07:19:18.899Z,13.71
2018-05-15T07:21:48.031Z,13.60
2018-05-15T07:24:17.361Z,13.41
2018-05-15T07:26:56.758Z,13.46
2018-05-15T07:29:27.050Z,13.47
2018-05-15T07:31:59.179Z,13.66
2018-05-15T07:34:36.522Z,13.88
2018-05-15T07:37:08.736Z,13.92
2018-05-15T07:39:49.140Z,13.84
2018-05-15T07:42:18.395Z,13.93
2018-05-15T07:45:05.862Z,13.85
2018-05-15T07:47:37.690Z,13.87
2018-05-15T07:50:05.923Z,14.00
2018-05-15T07:52:38.254Z,14.24
2018-05-15T07:55:11.019Z,14.58
2018-05-15T07:57:39.424Z,14.58
2018-05-15T08:00:10.450Z,14.54
2018-05-15T08:02:53.589Z,14.83
2018-05-15T08:05:23.967Z,15.22
2018-05-15T08:07:57.604Z,15.37
2018-05-15T08:10:38.616Z,15.54
2018-05-15T08:13:07.986Z,15.79
2018-05-15T08:15:48.258Z,15.48
2018-05-15T08:18:17.803Z,15.20
2018-05-15T08:20:57.919Z,15.10
2018-05-15T08:23:27.179Z,15.12
2018-05-15T08:26:05.436Z,14.96
2018-05-15T08:28:42.240Z,15.15
2018-05-15T08:31:18.892Z,15.86
2018-05-15T08:33:54.844Z,16.02
2018-05-15T08:36:25.106Z,16.08
2018-05-15T08:39:07.544Z,16.58
2018-05-15T08:41:36.596Z,17.12
2018-05-15T08:44:05.915Z,17.82
2018-05-15T08:46:37.986Z,16.90
2018-05-15T08:49:16.251Z,16.53
2018-05-15T08:51:44.573Z,16.26
2018-05-15T08:54:14.026Z,15.64
2018-05-15T08:56:57.160Z,15.74
2018-05-15T08:59:27.411Z,15.90
2018-05-15T09:02:07.214Z,15.98
2018-05-15T09:04:42.586Z,16.38
2018-05-15T09:07:21.724Z,16.36
2018-05-15T09:09:49.993Z,16.85
2018-05-15T09:12:31.023Z,16.93
2018-05-15T09:15:03.252Z,17.10
2018-05-15T09:17:38.584Z,16.98
2018-05-15T09:20:14.303Z,16.92
2018-05-15T09:22:49.987Z,17.13
2018-05-15T09:25:22.300Z,17.54
2018-05-15T09:27:54.751Z,17.24
2018-05-15T09:30:26.493Z,17.14
2018-05-15T09:32:59.306Z,16.80
2018-05-15T09:35:33.061Z,16.32
2018-05-15T09:38:11.606Z,14.94
2018-05-15T09:40:54.995Z,14.46
2018-05-15T09:46:52.929Z,14.68
2018-05-15T09:49:36.093Z,14.95
2018-05-15T09:52:12.109Z,15.07
2018-05-15T09:54:44.341Z,15.09
2018-05-15T09:57:36.232Z,15.01
2018-05-15T10:00:10.105Z,14.67
2018-05-15T10:02:44.413Z,15.00
2018-05-15T10:05:18.458Z,15.88
2018-05-15T10:07:46.829Z,16.60
2018-05-15T10:10:21.847Z,16.87
2018-05-15T10:13:03.192Z,17.19
2018-05-15T10:15:32.479Z,17.25
2018-05-15T10:18:00.814Z,17.17
2018-05-15T10:20:51.142Z,17.49
2018-05-15T10:23:23.675Z,17.95
2018-05-15T10:25:53.962Z,17.54
2018-05-15T10:28:27.198Z,17.77
2018-05-15T10:31:08.519Z,18.01
2018-05-15T10:33:49.721Z,18.07
2018-05-15T10:36:25.303Z,19.34
2018-05-15T10:39:01.125Z,22.00
2018-05-15T10:41:37.365Z,22.98
2018-05-15T10:44:13.963Z,25.53
2018-05-15T10:46:42.296Z,27.25
2018-05-15T10:49:12.589Z,27.01
2018-05-15T10:51:42.873Z,23.84
2018-05-15T10:54:19.073Z,23.54
2018-05-15T10:56:49.295Z,24.75
2018-05-15T10:59:18.744Z,26.16
2018-05-15T11:02:06.636Z,24.58
2018-05-15T11:04:39.723Z,27.66
2018-05-15T11:07:12.557Z,29.10
2018-05-15T11:09:41.605Z,29.91
2018-05-15T11:12:11.599Z,31.21
2018-05-15T11:14:44.092Z,29.17
2018-05-15T11:17:12.487Z,27.23
2018-05-15T11:19:59.004Z,26.08
2018-05-15T11:22:46.455Z,23.23
2018-05-15T11:25:33.553Z,25.80
2018-05-15T11:28:02.844Z,24.14
2018-05-15T11:30:33.261Z,22.45
2018-05-15T11:33:21.660Z,21.82
2018-05-15T11:35:55.692Z,22.12
2018-05-15T11:38:25.780Z,25.01
2018-05-15T11:41:19.174Z,27.07
2018-05-15T11:44:05.585Z,25.91
2018-05-15T11:46:47.364Z,26.78
2018-05-15T11:49:26.784Z,27.17
2018-05-15T11:52:03.478Z,29.31
2018-05-15T11:54:48.555Z,31.04
2018-05-15T11:57:20.966Z,32.16
2018-05-15T11:59:59.682Z,31.22
2018-05-15T12:02:41.457Z,28.01
2018-05-15T12:05:13.680Z,25.02
2018-05-15T12:07:41.926Z,24.88
2018-05-15T12:10:15.206Z,24.83
2018-05-15T12:12:43.653Z,24.93
2018-05-15T12:15:14.079Z,26.78
2018-05-15T12:17:42.447Z,28.06
2018-05-15T12:20:14.151Z,29.90
2018-05-15T12:22:43.470Z,30.36
2018-05-15T12:25:12.753Z,26.47
2018-05-15T12:27:43.322Z,26.71
2018-05-15T12:30:11.797Z,24.92
2018-05-15T12:32:43.316Z,23.93
2018-05-15T12:35:16.467Z,22.83
2018-05-15T12:37:44.770Z,22.38
2018-05-15T12:40:16.852Z,21.59
2018-05-15T12:42:52.116Z,20.32
2018-05-15T12:45:27.279Z,20.05
2018-05-15T12:47:56.802Z,19.59
2018-05-15T12:50:35.559Z,18.83
2018-05-15T12:53:09.484Z,18.22
2018-05-15T12:55:40.915Z,18.03
2018-05-15T12:58:09.254Z,17.43
2018-05-15T13:00:38.523Z,17.13
2018-05-15T13:03:09.644Z,16.86
2018-05-15T13:05:38.562Z,16.63
2018-05-15T13:08:13.437Z,16.53
2018-05-15T13:10:47.955Z,16.43
2018-05-15T13:13:17.766Z,16.32
2018-05-15T13:15:54.696Z,16.26
2018-05-15T13:18:29.227Z,15.99
2018-05-15T13:21:04.662Z,15.92
2018-05-15T13:23:43.529Z,15.89
2018-05-15T13:26:12.099Z,16.07
2018-05-15T13:28:45.247Z,16.11
2018-05-15T13:31:18.542Z,16.33
2018-05-15T13:34:04.757Z,16.42
2018-05-15T13:36:38.514Z,16.26
2018-05-15T13:39:11.551Z,16.51
2018-05-15T13:41:42.750Z,16.33
2018-05-15T13:44:15.788Z,16.29
2018-05-15T13:46:48.415Z,16.22
2018-05-15T13:49:20.370Z,16.35
2018-05-15T13:51:50.781Z,16.04
2018-05-15T13:54:22.186Z,15.88
2018-05-15T13:56:51.947Z,15.80
2018-05-15T13:59:39.248Z,15.78
2018-05-15T14:02:17.503Z,15.54
2018-05-15T14:04:56.649Z,15.44
2018-05-15T14:07:24.905Z,15.54
2018-05-15T14:09:57.736Z,15.46
2018-05-15T14:12:27.195Z,15.31
2018-05-15T14:14:58.179Z,15.28
2018-05-15T14:17:29.274Z,15.39
2018-05-15T14:20:06.160Z,15.51
2018-05-15T14:22:45.972Z,15.60
2018-05-15T14:25:16.552Z,15.95
2018-05-15T14:27:55.813Z,16.21
2018-05-15T14:30:25.030Z,16.36
2018-05-15T14:32:58.104Z,16.21
2018-05-15T14:35:44.359Z,16.23
2018-05-15T14:38:24.675Z,16.25
2018-05-15T14:40:53.934Z,16.02
2018-05-15T14:43:32.103Z,16.51
2018-05-15T14:46:00.424Z,16.55
2018-05-15T14:48:28.700Z,16.48
2018-05-15T14:54:13.276Z,17.47
2018-05-15T14:56:41.666Z,18.86
2018-05-15T14:59:28.863Z,20.57
2018-05-15T15:02:01.443Z,19.86
2018-05-15T15:04:30.733Z,19.13
2018-05-15T15:07:03.974Z,19.04
2018-05-15T15:09:38.099Z,18.50
2018-05-15T15:12:09.607Z,18.88
2018-05-15T15:14:43.479Z,19.21
2018-05-15T15:17:22.196Z,18.59
2018-05-15T15:19:59.779Z,18.25
2018-05-15T15:22:28.155Z,18.01
2018-05-15T15:25:07.877Z,18.02
2018-05-15T15:27:57.351Z,17.56
2018-05-15T15:30:28.366Z,17.76
2018-05-15T15:32:56.759Z,17.58
2018-05-15T15:35:30.699Z,17.40
2018-05-15T15:38:09.348Z,17.27
2018-05-15T15:40:57.976Z,17.40
2018-05-15T15:43:27.365Z,16.92
2018-05-15T15:46:06.127Z,17.11
2018-05-15T15:48:40.158Z,17.21
2018-05-15T15:51:28.381Z,17.11
2018-05-15T15:54:26.715Z,15.90
2018-05-15T15:57:09.632Z,15.25
2018-05-15T15:59:43.206Z,14.62
2018-05-15T16:02:20.888Z,14.84
2018-05-15T16:05:03.768Z,14.98
2018-05-15T16:07:41.902Z,15.91
2018-05-15T16:10:17.550Z,17.04
2018-05-15T16:12:53.409Z,17.54
2018-05-15T16:15:30.588Z,18.54
2018-05-15T16:18:00.565Z,19.00
2018-05-15T16:20:29.628Z,18.38
2018-05-15T16:23:03.469Z,19.59
2018-05-15T16:25:34.189Z,18.52
2018-05-15T16:28:06.760Z,19.09
2018-05-15T16:30:35.001Z,18.55
2018-05-15T16:33:13.447Z,17.97
2018-05-15T16:35:49.051Z,16.62
2018-05-15T16:38:25.334Z,16.20
2018-05-15T16:41:03.208Z,15.87
2018-05-15T16:43:38.072Z,15.42
2018-05-15T16:46:12.712Z,15.93
2018-05-15T16:48:40.999Z,15.48
2018-05-15T16:51:09.280Z,15.35
2018-05-15T16:53:41.662Z,14.96
2018-05-15T16:56:28.828Z,14.36
2018-05-15T16:58:57.135Z,13.61
2018-05-15T17:01:28.498Z,13.37
2018-05-15T17:04:03.836Z,12.94
2018-05-15T17:06:38.703Z,12.42
2018-05-15T17:09:08.080Z,12.39
2018-05-15T17:11:39.107Z,12.33
2018-05-15T17:14:07.371Z,12.19
2018-05-15T17:16:41.710Z,12.25
2018-05-15T17:19:35.846Z,12.47
2018-05-15T17:22:16.092Z,12.46
2018-05-15T17:24:48.582Z,12.27
2018-05-15T17:27:16.901Z,12.07
2018-05-15T17:29:50.862Z,12.14
2018-05-15T17:32:21.284Z,12.14
2018-05-15T17:34:50.499Z,12.02
2018-05-15T17:37:18.766Z,11.94
2018-05-15T17:39:48.528Z,11.89
2018-05-15T17:42:22.050Z,11.91
2018-05-15T17:45:09.738Z,11.99
2018-05-15T17:47:45.235Z,12.07
2018-05-15T17:50:14.609Z,12.14
2018-05-15T17:52:45.617Z,12.15
2018-05-15T17:55:14.962Z,12.18
2018-05-15T17:57:49.893Z,12.27
2018-05-15T18:00:18.336Z,12.22
2018-05-15T18:02:48.069Z,12.19
2018-05-15T18:05:24.504Z,12.21
2018-05-15T18:07:58.421Z,12.21
2018-05-15T18:10:43.962Z,12.10
2018-05-15T18:13:28.408Z,12.07
2018-05-15T18:16:02.016Z,12.13
2018-05-15T18:18:32.311Z,12.10
2018-05-15T18:21:12.857Z,12.06
2018-05-15T18:23:41.105Z,12.10
2018-05-15T18:26:11.802Z,12.07
2018-05-15T18:28:46.746Z,12.04
2018-05-15T18:31:21.074Z,12.03
2018-05-15T18:33:52.900Z,12.11
2018-05-15T18:36:34.230Z,12.09
2018-05-15T18:39:04.706Z,12.04
2018-05-15T18:41:35.000Z,11.94
2018-05-15T18:44:04.303Z,11.98
2018-05-15T18:46:32.583Z,11.97
2018-05-15T18:49:00.862Z,12.01
2018-05-15T18:51:32.041Z,12.02
2018-05-15T18:54:03.770Z,11.95
2018-05-15T18:56:33.055Z,11.90
2018-05-15T18:59:04.949Z,11.89
2018-05-15T19:01:36.042Z,11.85
2018-05-15T19:04:06.976Z,11.83
2018-05-15T19:06:35.739Z,11.90
2018-05-15T19:09:04.143Z,11.87
2018-05-15T19:11:32.453Z,11.98
2018-05-15T19:14:01.578Z,11.97
2018-05-15T19:16:30.898Z,11.99
2018-05-15T19:19:00.193Z,11.85
2018-05-15T19:21:34.460Z,11.77
2018-05-15T19:24:08.530Z,11.71
2018-05-15T19:26:39.715Z,11.75
2018-05-15T19:29:38.037Z,11.65
2018-05-15T19:32:14.271Z,11.63
2018-05-15T19:34:48.194Z,11.55
2018-05-15T19:37:22.740Z,11.62
2018-05-15T19:39:57.099Z,11.59
2018-05-15T19:42:27.219Z,11.50
2018-05-15T19:44:56.495Z,11.51
2018-05-15T19:47:26.817Z,11.48
2018-05-15T19:50:06.998Z,11.49
2018-05-15T19:52:36.288Z,11.45
2018-05-15T19:55:12.063Z,11.44
2018-05-15T19:57:41.171Z,11.44
2018-05-15T20:00:10.502Z,11.47
2018-05-15T20:02:40.098Z,11.43
2018-05-15T20:05:12.094Z,11.38
2018-05-15T20:07:41.513Z,11.47
2018-05-15T20:10:19.594Z,11.40
2018-05-15T20:12:55.924Z,11.43
2018-05-15T20:15:24.223Z,11.42
2018-05-15T20:17:54.095Z,11.39
2018-05-15T20:20:30.334Z,11.39
2018-05-15T20:23:03.735Z,11.47
2018-05-15T20:25:36.563Z,11.52
2018-05-15T20:28:09.504Z,11.49
2018-05-15T20:30:37.903Z,11.49
2018-05-15T20:33:06.184Z,11.46
2018-05-15T20:35:35.475Z,11.53
2018-05-15T20:41:06.425Z,11.73
2018-05-15T20:43:35.675Z,11.75
2018-05-15T20:46:08.616Z,11.84
2018-05-15T20:48:37.137Z,11.74
2018-05-15T20:51:07.366Z,11.71
2018-05-15T20:53:36.723Z,11.75
2018-05-15T20:56:05.961Z,11.70
2018-05-15T20:58:37.145Z,11.72
2018-05-15T21:01:05.956Z,11.76
2018-05-15T21:03:38.883Z,11.85
2018-05-15T21:06:07.225Z,11.84
2018-05-15T21:08:50.534Z,11.84
2018-05-15T21:11:24.241Z,11.83
2018-05-15T21:14:05.692Z,11.94
2018-05-15T21:16:37.227Z,11.89
2018-05-15T21:19:06.978Z,11.84
2018-05-15T21:21:37.268Z,11.79
2018-05-15T21:24:08.280Z,11.76
2018-05-15T21:26:42.010Z,11.74
2018-05-15T21:29:18.133Z,11.74
2018-05-15T21:32:01.073Z,11.67
2018-05-15T21:34:30.431Z,11.66
2018-05-15T21:37:04.204Z,11.59
2018-05-15T21:39:40.590Z,11.54
2018-05-15T21:42:17.843Z,11.59
2018-05-15T21:44:48.915Z,11.58
2018-05-15T21:47:18.678Z,11.51
2018-05-15T21:49:48.053Z,11.50
2018-05-15T21:52:24.476Z,11.48
2018-05-15T21:54:58.639Z,11.60
2018-05-15T21:57:28.950Z,11.52
2018-05-15T21:59:59.021Z,11.52
2018-05-15T22:02:28.077Z,11.50
2018-05-15T22:04:56.370Z,11.45
2018-05-15T22:07:24.867Z,11.48
2018-05-15T22:09:59.655Z,11.44
2018-05-15T22:12:51.694Z,11.47
2018-05-15T22:15:44.154Z,11.49
2018-05-15T22:18:36.855Z,11.41
2018-05-15T22:21:25.074Z,11.38
2018-05-15T22:23:55.304Z,11.30
2018-05-15T22:26:28.437Z,11.45
2018-05-15T22:28:57.343Z,11.33
2018-05-15T22:31:38.502Z,11.32
2018-05-15T22:34:17.879Z,11.31
2018-05-15T22:37:09.005Z,11.32
2018-05-15T22:39:45.364Z,11.31
2018-05-15T22:42:16.480Z,11.38
2018-05-15T22:44:59.588Z,11.31
2018-05-15T22:47:32.035Z,11.37
2018-05-15T22:50:15.880Z,11.30
2018-05-15T22:52:57.917Z,11.51
2018-05-15T22:55:30.202Z,11.46
2018-05-15T22:58:00.566Z,11.42
2018-05-15T23:00:35.881Z,11.49
2018-05-15T23:03:19.478Z,11.37
2018-05-15T23:05:54.959Z,11.31
2018-05-15T23:08:24.829Z,11.32
2018-05-15T23:10:53.129Z,11.29
2018-05-15T23:13:40.284Z,11.23
2018-05-15T23:16:12.731Z,11.24
2018-05-15T23:18:44.686Z,11.30
2018-05-15T23:21:21.042Z,11.33
2018-05-15T23:24:05.958Z,11.24
2018-05-15T23:26:36.992Z,11.29
2018-05-15T23:29:09.362Z,11.33
2018-05-15T23:31:39.340Z,11.31
2018-05-15T23:34:11.866Z,11.24
2018-05-15T23:36:41.112Z,11.21
2018-05-15T23:39:33.667Z,11.21
2018-05-15T23:42:14.219Z,11.18
2018-05-15T23:44:47.748Z,11.20
2018-05-15T23:47:26.007Z,11.18
2018-05-15T23:49:54.359Z,11.19
2018-05-15T23:52:31.261Z,11.22
2018-05-15T23:55:03.484Z,11.24
2018-05-15T23:57:39.920Z,11.20
